Harriman, TN (37748)

11:15 PM EDT on September 19, 2014 (GMT -0400)
Lakeside | Change Station
CLOSE
Current Station
Personal Weather Station
Location: Kingston, TN
Elevation: 771 ft
Nearby Weather Stations

Elev 771 ft 35.85 °N, 84.49 °W | Updated 14 minutes ago

Mostly Cloudy
Mostly Cloudy
67.8 °F
Feels Like 67.8 °F
N
0.0
Wind Variable Wind from SSW

Today
High -- | Low -- °F
--% Chance of Precip.
Yesterday
High -- | Low -- °F
Precip. -- in
7:23 AM 7:39 PM
Waning Crescent, 15% visible
Pressure 30.10 in
Visibility 10.0 miles
Clouds Mostly Cloudy 5500 ft
Mostly Cloudy 6500 ft
Dew Point 66 °F
Humidity 92%
Rainfall 0.00 in
Snow Depth Not available.
UV 0 out of 12
Pollen 6.70 out of 12
Ozone Good
PM2.5 Moderate
Flu Activity Not available.
METAR KOQT 200253Z AUTO 00000KT 10SM BKN055 BKN065 23/18 A3014 RMK AO2 SLP193 T02330183 51016

More Conditions Fewer Conditions

Pressure 30.10 in
Visibility 10.0 miles
Clouds Mostly Cloudy 5500 ft
Mostly Cloudy 6500 ft
Dew Point 66 °F
Humidity 92%
Rainfall 0.00 in
Snow Depth Not available.
UV 0 out of 12
Pollen 6.70 out of 12
Ozone Good
PM2.5 Moderate
Flu Activity Not available.
METAR KOQT 200253Z AUTO 00000KT 10SM BKN055 BKN065 23/18 A3014 RMK AO2 SLP193 T02330183 51016

More Conditions Fewer Conditions

10-Day Weather Forecast

Almanac

Astronomy

Sep. 19, 2014 Rise Set
Actual Time 7:23 AM EDT 7:39 PM EDT
Civil Twilight 6:58 AM EDT 8:04 PM EDT
Nautical Twilight 6:28 AM EDT 8:34 PM EDT
Astronomical Twilight 5:57 AM EDT 9:05 PM EDT
Moon 3:14 AM EDT (9/19) 5:01 PM EDT (9/19)
Length of Visible Light 13h 06m
Length of Day
12h 15m
Tomorrow will be 2m 16s shorter.
Waning Crescent, 15% of the Moon is Illuminated
Today
Waning Crescent
Sep 24
New
Oct 1
First Quarter
Oct 8
Full
Oct 15
Last Quarter

Today's Extremes

State Highs State Lows

Community

WunderPhotos

Upload Photos

1,754,775 photos uploaded!

WunderBlogs® & News

Nearby

Air Quality

  Air Quality AQ Index Pollutant
Yesterday Good
PM2.5
Yesterday Good
OZONE
Current Moderate
PM2.5
Current Good
OZONE
Friday Moderate
PM2.5
Friday Good
OZONE
Saturday Moderate
PM2.5
Saturday Good
OZONE
Sunday Moderate
PM2.5
Sunday Good
OZONE

Snow Depth

Station Depth Elevation
No new snow has been reported.

Earthquake Activity

City Distance Mag. Time & Date
No recent earthquake activity has been reported nearby.
Minimum magnitude displayed is 2.5.

Coastal Water Temperatures

Place Temperature
No Stations Reporting

Nearby Weather Stations